sensor_id;sensor_type;location;lat;lon;timestamp;temperature;humidity
21772;DHT22;11047;47.904;8.110;2023-10-13T00:33:32;12.80;99.90
21772;DHT22;11047;47.904;8.110;2023-10-13T00:36:41;13.20;99.90
21772;DHT22;11047;47.904;8.110;2023-10-13T06:14:29;8.70;99.90
21772;DHT22;11047;47.904;8.110;2023-10-13T06:17:56;8.70;99.90
21772;DHT22;11047;47.904;8.110;2023-10-13T06:34:34;8.80;99.90
21772;DHT22;11047;47.904;8.110;2023-10-13T06:37:10;8.90;99.90
21772;DHT22;11047;47.904;8.110;2023-10-13T06:39:52;9.00;99.90
21772;DHT22;11047;47.904;8.110;2023-10-13T06:42:24;8.90;99.90
21772;DHT22;11047;47.904;8.110;2023-10-13T06:45:01;9.00;99.90
21772;DHT22;11047;47.904;8.110;2023-10-13T06:48:28;9.10;99.90
21772;DHT22;11047;47.904;8.110;2023-10-13T07:16:19;9.80;99.90
21772;DHT22;11047;47.904;8.110;2023-10-13T07:18:49;10.50;99.90
21772;DHT22;11047;47.904;8.110;2023-10-13T07:21:30;10.10;99.90
21772;DHT22;11047;47.904;8.110;2023-10-13T07:24:14;10.20;99.90
21772;DHT22;11047;47.904;8.110;2023-10-13T07:26:45;10.20;99.90
21772;DHT22;11047;47.904;8.110;2023-10-13T07:29:28;10.70;99.90
21772;DHT22;11047;47.904;8.110;2023-10-13T07:32:15;10.60;99.90
21772;DHT22;11047;47.904;8.110;2023-10-13T07:34:49;10.70;99.90
21772;DHT22;11047;47.904;8.110;2023-10-13T07:37:18;10.80;99.90
21772;DHT22;11047;47.904;8.110;2023-10-13T07:40:10;10.90;99.90
21772;DHT22;11047;47.904;8.110;2023-10-13T07:43:08;10.80;99.90
21772;DHT22;11047;47.904;8.110;2023-10-13T07:45:49;11.30;99.90
21772;DHT22;11047;47.904;8.110;2023-10-13T07:48:29;11.50;99.90
21772;DHT22;11047;47.904;8.110;2023-10-13T07:51:06;11.70;99.90
21772;DHT22;11047;47.904;8.110;2023-10-13T07:53:42;11.90;99.90
21772;DHT22;11047;47.904;8.110;2023-10-13T07:56:13;12.00;99.90
21772;DHT22;11047;47.904;8.110;2023-10-13T07:58:56;12.10;99.90
21772;DHT22;11047;47.904;8.110;2023-10-13T08:01:41;12.40;99.90
21772;DHT22;11047;47.904;8.110;2023-10-13T08:04:29;12.50;99.90
21772;DHT22;11047;47.904;8.110;2023-10-13T08:07:07;12.70;99.90
21772;DHT22;11047;47.904;8.110;2023-10-13T08:09:56;12.40;99.90
21772;DHT22;11047;47.904;8.110;2023-10-13T08:12:25;13.00;99.90
21772;DHT22;11047;47.904;8.110;2023-10-13T08:14:53;14.20;99.90
21772;DHT22;11047;47.904;8.110;2023-10-13T08:17:42;16.20;99.90
21772;DHT22;11047;47.904;8.110;2023-10-13T08:20:17;17.40;99.90
21772;DHT22;11047;47.904;8.110;2023-10-13T08:22:48;17.50;99.90
21772;DHT22;11047;47.904;8.110;2023-10-13T08:25:39;17.30;99.90
21772;DHT22;11047;47.904;8.110;2023-10-13T08:28:23;17.40;99.90
21772;DHT22;11047;47.904;8.110;2023-10-13T08:31:14;18.30;99.90
21772;DHT22;11047;47.904;8.110;2023-10-13T08:33:50;20.20;99.90
21772;DHT22;11047;47.904;8.110;2023-10-13T08:36:35;21.80;99.90
21772;DHT22;11047;47.904;8.110;2023-10-13T08:39:04;24.30;99.90
21772;DHT22;11047;47.904;8.110;2023-10-13T08:42:03;25.80;99.90
21772;DHT22;11047;47.904;8.110;2023-10-13T08:44:41;26.00;99.90
21772;DHT22;11047;47.904;8.110;2023-10-13T08:47:24;26.00;99.90
21772;DHT22;11047;47.904;8.110;2023-10-13T08:50:08;26.70;99.90
21772;DHT22;11047;47.904;8.110;2023-10-13T08:52:58;27.30;99.90
21772;DHT22;11047;47.904;8.110;2023-10-13T08:55:41;26.90;99.90
21772;DHT22;11047;47.904;8.110;2023-10-13T08:58:32;26.90;99.90
21772;DHT22;11047;47.904;8.110;2023-10-13T09:01:18;27.60;99.90
21772;DHT22;11047;47.904;8.110;2023-10-13T09:04:02;28.10;99.90
21772;DHT22;11047;47.904;8.110;2023-10-13T09:06:46;29.00;99.90
21772;DHT22;11047;47.904;8.110;2023-10-13T09:09:44;29.60;99.50
21772;DHT22;11047;47.904;8.110;2023-10-13T09:12:36;31.30;96.80
21772;DHT22;11047;47.904;8.110;2023-10-13T09:15:09;30.20;96.60
21772;DHT22;11047;47.904;8.110;2023-10-13T09:18:08;29.50;96.80
21772;DHT22;11047;47.904;8.110;2023-10-13T09:20:42;29.00;99.20
21772;DHT22;11047;47.904;8.110;2023-10-13T09:23:13;28.40;98.50
21772;DHT22;11047;47.904;8.110;2023-10-13T09:25:54;27.70;99.90
21772;DHT22;11047;47.904;8.110;2023-10-13T09:28:24;27.10;99.80
21772;DHT22;11047;47.904;8.110;2023-10-13T09:30:57;26.70;99.90
21772;DHT22;11047;47.904;8.110;2023-10-13T09:33:29;26.30;98.70
21772;DHT22;11047;47.904;8.110;2023-10-13T09:36:00;26.20;98.70
21772;DHT22;11047;47.904;8.110;2023-10-13T09:38:33;25.80;99.50
21772;DHT22;11047;47.904;8.110;2023-10-13T09:41:04;25.80;99.70
21772;DHT22;11047;47.904;8.110;2023-10-13T09:43:43;25.40;99.60
21772;DHT22;11047;47.904;8.110;2023-10-13T09:46:15;25.70;99.30
21772;DHT22;11047;47.904;8.110;2023-10-13T09:48:45;25.50;99.90
21772;DHT22;11047;47.904;8.110;2023-10-13T09:51:14;25.30;99.30
21772;DHT22;11047;47.904;8.110;2023-10-13T09:53:55;25.40;99.90
21772;DHT22;11047;47.904;8.110;2023-10-13T09:56:32;25.20;99.00
21772;DHT22;11047;47.904;8.110;2023-10-13T09:59:19;25.30;99.90
21772;DHT22;11047;47.904;8.110;2023-10-13T10:01:55;25.70;99.90
21772;DHT22;11047;47.904;8.110;2023-10-13T10:04:23;25.30;99.60
21772;DHT22;11047;47.904;8.110;2023-10-13T10:06:58;25.10;99.60
21772;DHT22;11047;47.904;8.110;2023-10-13T10:09:27;25.10;99.50
21772;DHT22;11047;47.904;8.110;2023-10-13T10:12:25;25.10;99.70
21772;DHT22;11047;47.904;8.110;2023-10-13T10:15:01;25.10;99.90
21772;DHT22;11047;47.904;8.110;2023-10-13T10:17:41;25.20;99.90
21772;DHT22;11047;47.904;8.110;2023-10-13T10:20:10;25.00;99.90
21772;DHT22;11047;47.904;8.110;2023-10-13T10:22:56;24.90;99.80
21772;DHT22;11047;47.904;8.110;2023-10-13T10:25:37;25.10;99.90
21772;DHT22;11047;47.904;8.110;2023-10-13T10:28:11;25.20;99.90
21772;DHT22;11047;47.904;8.110;2023-10-13T10:30:43;25.30;99.90
21772;DHT22;11047;47.904;8.110;2023-10-13T10:33:16;25.20;99.90
21772;DHT22;11047;47.904;8.110;2023-10-13T10:35:59;25.20;99.90
21772;DHT22;11047;47.904;8.110;2023-10-13T10:38:50;25.20;99.90
21772;DHT22;11047;47.904;8.110;2023-10-13T10:41:26;25.20;99.90
21772;DHT22;11047;47.904;8.110;2023-10-13T10:44:21;25.40;99.90
21772;DHT22;11047;47.904;8.110;2023-10-13T10:47:13;25.50;99.90
21772;DHT22;11047;47.904;8.110;2023-10-13T10:49:46;25.80;99.90
21772;DHT22;11047;47.904;8.110;2023-10-13T10:52:17;25.70;99.90
21772;DHT22;11047;47.904;8.110;2023-10-13T10:55:06;25.90;99.90
21772;DHT22;11047;47.904;8.110;2023-10-13T10:57:42;25.80;99.90
21772;DHT22;11047;47.904;8.110;2023-10-13T11:00:24;25.80;99.90
21772;DHT22;11047;47.904;8.110;2023-10-13T11:03:06;25.80;99.80
21772;DHT22;11047;47.904;8.110;2023-10-13T11:05:45;26.00;99.90
21772;DHT22;11047;47.904;8.110;2023-10-13T11:08:25;26.00;99.30
21772;DHT22;11047;47.904;8.110;2023-10-13T11:11:02;26.10;99.90
21772;DHT22;11047;47.904;8.110;2023-10-13T11:13:41;26.10;99.50
21772;DHT22;11047;47.904;8.110;2023-10-13T11:16:23;25.90;99.90
21772;DHT22;11047;47.904;8.110;2023-10-13T11:19:05;25.80;99.90
21772;DHT22;11047;47.904;8.110;2023-10-13T11:21:37;25.80;99.50
21772;DHT22;11047;47.904;8.110;2023-10-13T11:24:08;26.10;99.60
21772;DHT22;11047;47.904;8.110;2023-10-13T11:26:41;25.90;99.60
21772;DHT22;11047;47.904;8.110;2023-10-13T11:29:16;26.20;99.90
21772;DHT22;11047;47.904;8.110;2023-10-13T11:31:48;26.30;99.70
21772;DHT22;11047;47.904;8.110;2023-10-13T11:34:24;25.80;98.80
21772;DHT22;11047;47.904;8.110;2023-10-13T11:37:05;25.80;98.70
21772;DHT22;11047;47.904;8.110;2023-10-13T11:39:46;26.00;98.80
21772;DHT22;11047;47.904;8.110;2023-10-13T11:42:14;25.80;98.70
21772;DHT22;11047;47.904;8.110;2023-10-13T11:44:50;25.80;98.70
21772;DHT22;11047;47.904;8.110;2023-10-13T11:47:40;25.90;98.60
21772;DHT22;11047;47.904;8.110;2023-10-13T11:50:15;25.90;98.20
21772;DHT22;11047;47.904;8.110;2023-10-13T11:53:05;26.20;98.20
21772;DHT22;11047;47.904;8.110;2023-10-13T11:55:36;25.80;98.00
21772;DHT22;11047;47.904;8.110;2023-10-13T11:58:04;25.80;98.20
21772;DHT22;11047;47.904;8.110;2023-10-13T12:00:33;25.90;98.30
21772;DHT22;11047;47.904;8.110;2023-10-13T12:03:16;25.80;98.20
21772;DHT22;11047;47.904;8.110;2023-10-13T12:06:11;25.60;98.20
21772;DHT22;11047;47.904;8.110;2023-10-13T12:09:02;25.60;98.20
21772;DHT22;11047;47.904;8.110;2023-10-13T12:11:45;25.90;98.20
21772;DHT22;11047;47.904;8.110;2023-10-13T12:14:17;26.00;98.60
21772;DHT22;11047;47.904;8.110;2023-10-13T12:16:52;25.80;97.40
21772;DHT22;11047;47.904;8.110;2023-10-13T12:19:30;25.90;98.00
21772;DHT22;11047;47.904;8.110;2023-10-13T12:22:00;25.70;97.60
21772;DHT22;11047;47.904;8.110;2023-10-13T12:24:48;25.80;97.70
21772;DHT22;11047;47.904;8.110;2023-10-13T12:27:19;25.70;98.50
21772;DHT22;11047;47.904;8.110;2023-10-13T12:29:49;25.50;98.00
21772;DHT22;11047;47.904;8.110;2023-10-13T12:32:18;25.50;98.30
21772;DHT22;11047;47.904;8.110;2023-10-13T12:34:49;25.60;98.70
21772;DHT22;11047;47.904;8.110;2023-10-13T12:37:51;25.70;98.10
21772;DHT22;11047;47.904;8.110;2023-10-13T12:40:32;25.40;98.40
21772;DHT22;11047;47.904;8.110;2023-10-13T12:43:20;25.30;98.00
21772;DHT22;11047;47.904;8.110;2023-10-13T12:46:04;25.30;98.10
21772;DHT22;11047;47.904;8.110;2023-10-13T12:48:52;25.20;98.10
21772;DHT22;11047;47.904;8.110;2023-10-13T12:51:31;25.10;98.10
21772;DHT22;11047;47.904;8.110;2023-10-13T12:54:16;25.20;98.10
21772;DHT22;11047;47.904;8.110;2023-10-13T12:56:49;25.30;98.50
21772;DHT22;11047;47.904;8.110;2023-10-13T12:59:24;25.30;98.20
21772;DHT22;11047;47.904;8.110;2023-10-13T13:01:53;25.20;98.00
21772;DHT22;11047;47.904;8.110;2023-10-13T13:04:28;25.20;98.30
21772;DHT22;11047;47.904;8.110;2023-10-13T13:07:11;25.20;98.30
21772;DHT22;11047;47.904;8.110;2023-10-13T13:09:39;25.20;98.80
21772;DHT22;11047;47.904;8.110;2023-10-13T13:12:09;25.00;98.40
21772;DHT22;11047;47.904;8.110;2023-10-13T13:14:38;24.90;98.30
21772;DHT22;11047;47.904;8.110;2023-10-13T13:17:11;24.90;98.50
21772;DHT22;11047;47.904;8.110;2023-10-13T13:19:43;24.90;99.40
21772;DHT22;11047;47.904;8.110;2023-10-13T13:22:16;24.80;98.60
21772;DHT22;11047;47.904;8.110;2023-10-13T13:24:45;24.80;98.50
21772;DHT22;11047;47.904;8.110;2023-10-13T13:27:33;24.70;98.80
21772;DHT22;11047;47.904;8.110;2023-10-13T13:30:10;24.90;99.00
21772;DHT22;11047;47.904;8.110;2023-10-13T13:32:44;25.00;99.20
21772;DHT22;11047;47.904;8.110;2023-10-13T13:35:46;24.90;99.20
21772;DHT22;11047;47.904;8.110;2023-10-13T13:38:08;24.70;98.60
21772;DHT22;11047;47.904;8.110;2023-10-13T13:40:42;24.70;99.20
21772;DHT22;11047;47.904;8.110;2023-10-13T13:43:16;24.70;99.90
21772;DHT22;11047;47.904;8.110;2023-10-13T13:45:58;24.70;99.70
21772;DHT22;11047;47.904;8.110;2023-10-13T13:48:27;24.70;99.70
21772;DHT22;11047;47.904;8.110;2023-10-13T13:50:56;24.80;99.90
21772;DHT22;11047;47.904;8.110;2023-10-13T13:53:31;24.70;99.90
21772;DHT22;11047;47.904;8.110;2023-10-13T13:56:03;24.60;99.60
21772;DHT22;11047;47.904;8.110;2023-10-13T13:58:36;24.70;99.90
21772;DHT22;11047;47.904;8.110;2023-10-13T14:01:04;24.70;99.90
21772;DHT22;11047;47.904;8.110;2023-10-13T14:03:39;24.80;99.90
21772;DHT22;11047;47.904;8.110;2023-10-13T14:06:13;24.80;99.90
21772;DHT22;11047;47.904;8.110;2023-10-13T14:08:45;24.60;99.90
21772;DHT22;11047;47.904;8.110;2023-10-13T14:11:15;24.70;99.90
21772;DHT22;11047;47.904;8.110;2023-10-13T14:14:09;24.50;99.90
21772;DHT22;11047;47.904;8.110;2023-10-13T14:16:39;24.40;99.90
21772;DHT22;11047;47.904;8.110;2023-10-13T14:19:10;24.40;99.90
21772;DHT22;11047;47.904;8.110;2023-10-13T14:21:45;24.50;99.90
21772;DHT22;11047;47.904;8.110;2023-10-13T14:24:20;24.40;99.90
21772;DHT22;11047;47.904;8.110;2023-10-13T14:26:52;24.30;99.90
21772;DHT22;11047;47.904;8.110;2023-10-13T14:29:20;24.30;99.90
21772;DHT22;11047;47.904;8.110;2023-10-13T14:31:47;24.30;99.90
21772;DHT22;11047;47.904;8.110;2023-10-13T14:34:14;24.30;99.90
21772;DHT22;11047;47.904;8.110;2023-10-13T14:36:47;24.20;99.90
21772;DHT22;11047;47.904;8.110;2023-10-13T14:39:17;24.20;99.90
21772;DHT22;11047;47.904;8.110;2023-10-13T14:41:48;24.20;99.90
21772;DHT22;11047;47.904;8.110;2023-10-13T14:44:17;23.80;99.90
21772;DHT22;11047;47.904;8.110;2023-10-13T14:46:44;24.10;99.90
21772;DHT22;11047;47.904;8.110;2023-10-13T14:49:11;24.00;99.90
21772;DHT22;11047;47.904;8.110;2023-10-13T14:51:44;23.90;99.90
21772;DHT22;11047;47.904;8.110;2023-10-13T14:54:11;23.70;99.90
21772;DHT22;11047;47.904;8.110;2023-10-13T14:56:40;23.60;99.90
21772;DHT22;11047;47.904;8.110;2023-10-13T14:59:09;23.50;99.90
21772;DHT22;11047;47.904;8.110;2023-10-13T15:01:42;23.50;99.90
21772;DHT22;11047;47.904;8.110;2023-10-13T15:04:10;23.50;99.90
21772;DHT22;11047;47.904;8.110;2023-10-13T15:06:37;23.10;99.90
21772;DHT22;11047;47.904;8.110;2023-10-13T15:09:06;23.40;99.90
21772;DHT22;11047;47.904;8.110;2023-10-13T15:11:36;23.10;99.90
21772;DHT22;11047;47.904;8.110;2023-10-13T15:14:04;23.30;99.90
21772;DHT22;11047;47.904;8.110;2023-10-13T15:16:33;23.30;99.90
21772;DHT22;11047;47.904;8.110;2023-10-13T15:19:01;23.20;99.90
21772;DHT22;11047;47.904;8.110;2023-10-13T15:21:30;23.20;99.90
21772;DHT22;11047;47.904;8.110;2023-10-13T15:24:00;23.00;99.90
21772;DHT22;11047;47.904;8.110;2023-10-13T15:26:29;23.10;99.90
21772;DHT22;11047;47.904;8.110;2023-10-13T15:29:07;23.10;99.90
21772;DHT22;11047;47.904;8.110;2023-10-13T15:31:39;23.10;99.90
21772;DHT22;11047;47.904;8.110;2023-10-13T15:34:12;22.80;99.90
21772;DHT22;11047;47.904;8.110;2023-10-13T15:36:39;22.70;99.90
21772;DHT22;11047;47.904;8.110;2023-10-13T15:39:08;22.40;99.90
21772;DHT22;11047;47.904;8.110;2023-10-13T15:41:38;22.30;99.90
21772;DHT22;11047;47.904;8.110;2023-10-13T15:44:10;22.10;99.90
21772;DHT22;11047;47.904;8.110;2023-10-13T15:46:40;21.90;99.90
21772;DHT22;11047;47.904;8.110;2023-10-13T15:49:07;21.70;99.90
21772;DHT22;11047;47.904;8.110;2023-10-13T15:51:35;21.50;99.90
21772;DHT22;11047;47.904;8.110;2023-10-13T15:54:03;21.50;99.90
21772;DHT22;11047;47.904;8.110;2023-10-13T15:56:30;21.50;99.90
21772;DHT22;11047;47.904;8.110;2023-10-13T15:58:59;20.90;99.90
21772;DHT22;11047;47.904;8.110;2023-10-13T16:01:28;21.10;99.90
21772;DHT22;11047;47.904;8.110;2023-10-13T16:04:13;20.90;99.90
21772;DHT22;11047;47.904;8.110;2023-10-13T16:06:41;20.80;99.90
21772;DHT22;11047;47.904;8.110;2023-10-13T16:09:12;20.60;99.90
21772;DHT22;11047;47.904;8.110;2023-10-13T16:11:41;20.50;99.90
21772;DHT22;11047;47.904;8.110;2023-10-13T16:14:12;20.20;99.90
21772;DHT22;11047;47.904;8.110;2023-10-13T16:16:46;19.60;99.90
21772;DHT22;11047;47.904;8.110;2023-10-13T16:19:36;19.50;99.90
21772;DHT22;11047;47.904;8.110;2023-10-13T16:22:15;19.70;99.90
21772;DHT22;11047;47.904;8.110;2023-10-13T16:25:21;19.50;99.90
21772;DHT22;11047;47.904;8.110;2023-10-13T20:30:15;16.00;99.90
21772;DHT22;11047;47.904;8.110;2023-10-13T20:32:50;16.70;99.90
21772;DHT22;11047;47.904;8.110;2023-10-13T20:36:16;16.60;99.90
21772;DHT22;11047;47.904;8.110;2023-10-13T20:39:25;16.90;99.90
21772;DHT22;11047;47.904;8.110;2023-10-13T20:42:00;16.80;99.90
21772;DHT22;11047;47.904;8.110;2023-10-13T20:44:37;17.50;99.90
21772;DHT22;11047;47.904;8.110;2023-10-13T20:47:10;17.60;99.90
21772;DHT22;11047;47.904;8.110;2023-10-13T20:50:02;17.60;99.90
21772;DHT22;11047;47.904;8.110;2023-10-13T20:53:11;17.30;99.90
21772;DHT22;11047;47.904;8.110;2023-10-13T20:56:03;17.90;99.90
21772;DHT22;11047;47.904;8.110;2023-10-13T21:22:23;17.20;99.90
21772;DHT22;11047;47.904;8.110;2023-10-13T21:24:50;17.60;99.90
21772;DHT22;11047;47.904;8.110;2023-10-13T21:27:16;17.60;99.90
21772;DHT22;11047;47.904;8.110;2023-10-13T21:29:44;17.60;99.90
21772;DHT22;11047;47.904;8.110;2023-10-13T21:32:14;17.70;99.90
21772;DHT22;11047;47.904;8.110;2023-10-13T21:34:41;17.70;99.90
21772;DHT22;11047;47.904;8.110;2023-10-13T21:37:08;17.80;99.90
21772;DHT22;11047;47.904;8.110;2023-10-13T21:39:38;17.80;99.90
21772;DHT22;11047;47.904;8.110;2023-10-13T21:42:05;17.80;99.90
21772;DHT22;11047;47.904;8.110;2023-10-13T21:44:33;18.00;99.90
21772;DHT22;11047;47.904;8.110;2023-10-13T21:47:00;18.00;99.90
21772;DHT22;11047;47.904;8.110;2023-10-13T21:49:27;17.90;99.90
21772;DHT22;11047;47.904;8.110;2023-10-13T21:51:53;18.00;99.90
21772;DHT22;11047;47.904;8.110;2023-10-13T21:54:20;17.90;99.90
21772;DHT22;11047;47.904;8.110;2023-10-13T21:56:49;17.80;99.90
21772;DHT22;11047;47.904;8.110;2023-10-13T21:59:16;17.90;99.90
21772;DHT22;11047;47.904;8.110;2023-10-13T22:01:43;18.00;99.90
21772;DHT22;11047;47.904;8.110;2023-10-13T22:04:10;18.00;99.90
21772;DHT22;11047;47.904;8.110;2023-10-13T22:06:46;18.20;99.90
21772;DHT22;11047;47.904;8.110;2023-10-13T22:09:12;18.40;99.90
21772;DHT22;11047;47.904;8.110;2023-10-13T22:11:40;18.40;99.90
21772;DHT22;11047;47.904;8.110;2023-10-13T22:14:08;18.40;99.90
21772;DHT22;11047;47.904;8.110;2023-10-13T22:16:38;18.40;99.90
21772;DHT22;11047;47.904;8.110;2023-10-13T22:19:05;18.40;99.90
21772;DHT22;11047;47.904;8.110;2023-10-13T22:21:31;18.40;99.90
21772;DHT22;11047;47.904;8.110;2023-10-13T22:23:58;18.50;99.90
21772;DHT22;11047;47.904;8.110;2023-10-13T22:26:26;18.60;99.90
21772;DHT22;11047;47.904;8.110;2023-10-13T22:28:53;18.60;99.90
21772;DHT22;11047;47.904;8.110;2023-10-13T22:31:22;18.50;99.90
21772;DHT22;11047;47.904;8.110;2023-10-13T22:33:51;18.60;99.90
21772;DHT22;11047;47.904;8.110;2023-10-13T22:36:18;18.50;99.90
21772;DHT22;11047;47.904;8.110;2023-10-13T22:38:51;18.60;99.90
21772;DHT22;11047;47.904;8.110;2023-10-13T22:41:22;18.50;99.90
21772;DHT22;11047;47.904;8.110;2023-10-13T22:43:49;18.40;99.90
21772;DHT22;11047;47.904;8.110;2023-10-13T22:46:16;18.60;99.90
21772;DHT22;11047;47.904;8.110;2023-10-13T22:48:46;18.50;99.90
21772;DHT22;11047;47.904;8.110;2023-10-13T22:51:13;18.60;99.90
21772;DHT22;11047;47.904;8.110;2023-10-13T22:53:41;18.70;99.90
21772;DHT22;11047;47.904;8.110;2023-10-13T22:56:08;18.60;99.90
21772;DHT22;11047;47.904;8.110;2023-10-13T22:58:34;18.50;99.90
21772;DHT22;11047;47.904;8.110;2023-10-13T23:01:04;18.50;99.90
21772;DHT22;11047;47.904;8.110;2023-10-13T23:03:31;18.50;99.90
21772;DHT22;11047;47.904;8.110;2023-10-13T23:06:08;18.50;99.90
21772;DHT22;11047;47.904;8.110;2023-10-13T23:08:37;18.60;99.90
21772;DHT22;11047;47.904;8.110;2023-10-13T23:11:05;18.50;99.90
21772;DHT22;11047;47.904;8.110;2023-10-13T23:13:40;18.60;99.90
21772;DHT22;11047;47.904;8.110;2023-10-13T23:16:07;18.50;99.90
21772;DHT22;11047;47.904;8.110;2023-10-13T23:18:34;18.50;99.90
21772;DHT22;11047;47.904;8.110;2023-10-13T23:21:00;18.40;99.90
21772;DHT22;11047;47.904;8.110;2023-10-13T23:23:33;18.40;99.90
21772;DHT22;11047;47.904;8.110;2023-10-13T23:26:00;18.50;99.90
21772;DHT22;11047;47.904;8.110;2023-10-13T23:28:29;18.50;99.90
21772;DHT22;11047;47.904;8.110;2023-10-13T23:30:56;18.50;99.90
21772;DHT22;11047;47.904;8.110;2023-10-13T23:33:25;18.50;99.90
21772;DHT22;11047;47.904;8.110;2023-10-13T23:35:53;18.50;99.90
21772;DHT22;11047;47.904;8.110;2023-10-13T23:38:20;18.50;99.90
21772;DHT22;11047;47.904;8.110;2023-10-13T23:41:02;18.50;99.90
21772;DHT22;11047;47.904;8.110;2023-10-13T23:43:31;18.30;99.90
21772;DHT22;11047;47.904;8.110;2023-10-13T23:46:08;18.20;99.90
21772;DHT22;11047;47.904;8.110;2023-10-13T23:48:36;18.10;99.90
21772;DHT22;11047;47.904;8.110;2023-10-13T23:51:04;17.90;99.90
21772;DHT22;11047;47.904;8.110;2023-10-13T23:53:32;17.90;99.90
21772;DHT22;11047;47.904;8.110;2023-10-13T23:56:02;17.80;99.90
21772;DHT22;11047;47.904;8.110;2023-10-13T23:58:35;17.60;99.90
